Accueil
METAR-TAF:

METAR-TAF

Aéroports :

Northeast Philadelphia Airport

Philadelphie, Pennsylvanie, États-Unis

latitude: 40-04-44N, longitude: 075-00-49W, altitude: 36 m

Observation

Le bulletin a été fait il y a 28 minutes, à 10:54 UTC
Vent 7 kt de nord
Température -2°C
Humidité 59%
Pression 1020 hPa
Visibilité: 16.1 km
Ciel clair

METAR: KPNE 101054Z AUTO 36007KT 10SM CLR M02/M09 A3012 RMK AO2 SLP199 T10221089

Heure: 06:22 (11:22 UTC)

Prévision

Le bulletin a été fait il y a 6 heures et 2 minutes, à 05:20 UTC
Prévision valable du 10 à 06 UTC au 11 à 06 UTC
Vent 5 kt de nord
Visibilité: 10 km
Nuages fragmentés à une hauteur de 20000 ft
A partir de 10 à 1100 UTC
Vent 10 kt de nord
Visibilité: 10 km
Nuages épars à une hauteur de 20000 ft
A partir de 10 à 2300 UTC
Vent 4 kt de nord/nord-est
Visibilité: 10 km
Ciel clair

TAF: KPNE 100520Z 1006/1106 36005KT P6SM BKN200 FM101100 01010KT P6SM SCT200 FM102300 02004KT P6SM SKC

Observations et prévisions météorologiques de plus de 4000 aéroports (messages METAR et TAF).

Les stations disponibles sont représentées par des disques jaunes et rouges sur la carte.

Passer la souris dessus pour voir le nom de la station.

Cliquer dessus pour voir les observations et prévisions météorologiques.

Pour changer de carte: cliquez sur les boutons verts avec une croix noire pour zoomer, sur le bouton vert avec un tiret pour effectuer un zoom arrière, ou sur les flèches vertes pour les cartes adjacentes.


METAR-TAF: